sensor_id;sensor_type;location;lat;lon;timestamp;pressure;altitude;pressure_sealevel;temperature;humidity
71643;BME280;59438;45.014;39.006;2022-08-21T00:00:20;100586.91;;;24.60;69.66
71643;BME280;59438;45.014;39.006;2022-08-21T00:02:50;100580.00;;;24.57;69.83
71643;BME280;59438;45.014;39.006;2022-08-21T00:05:16;100603.94;;;24.68;69.70
71643;BME280;59438;45.014;39.006;2022-08-21T00:07:44;100605.25;;;24.64;70.18
71643;BME280;59438;45.014;39.006;2022-08-21T00:10:11;100603.00;;;24.60;69.48
71643;BME280;59438;45.014;39.006;2022-08-21T00:12:39;100586.81;;;24.42;70.40
71643;BME280;59438;45.014;39.006;2022-08-21T00:15:08;100600.66;;;24.47;70.58
71643;BME280;59438;45.014;39.006;2022-08-21T00:17:36;100601.63;;;24.46;70.27
71643;BME280;59438;45.014;39.006;2022-08-21T00:20:03;100599.28;;;24.43;71.09
71643;BME280;59438;45.014;39.006;2022-08-21T00:22:30;100593.19;;;24.41;70.97
71643;BME280;59438;45.014;39.006;2022-08-21T00:24:58;100600.56;;;24.39;71.21
71643;BME280;59438;45.014;39.006;2022-08-21T00:27:24;100594.50;;;24.37;70.63
71643;BME280;59438;45.014;39.006;2022-08-21T00:29:51;100583.06;;;24.34;71.32
71643;BME280;59438;45.014;39.006;2022-08-21T00:32:20;100581.53;;;24.32;72.08
71643;BME280;59438;45.014;39.006;2022-08-21T00:34:46;100576.75;;;24.26;71.08
71643;BME280;59438;45.014;39.006;2022-08-21T00:37:13;100579.72;;;24.23;71.66
71643;BME280;59438;45.014;39.006;2022-08-21T00:39:39;100575.38;;;24.22;72.18
71643;BME280;59438;45.014;39.006;2022-08-21T00:42:07;100571.44;;;24.16;72.64
71643;BME280;59438;45.014;39.006;2022-08-21T00:44:34;100568.06;;;24.14;72.33
71643;BME280;59438;45.014;39.006;2022-08-21T00:47:01;100565.38;;;24.14;71.91
71643;BME280;59438;45.014;39.006;2022-08-21T00:49:27;100567.03;;;24.15;71.83
71643;BME280;59438;45.014;39.006;2022-08-21T00:51:55;100572.41;;;24.15;72.16
71643;BME280;59438;45.014;39.006;2022-08-21T00:54:24;100574.13;;;24.16;72.09
71643;BME280;59438;45.014;39.006;2022-08-21T00:56:54;100574.41;;;24.13;71.75
71643;BME280;59438;45.014;39.006;2022-08-21T00:59:25;100585.69;;;24.17;72.20
71643;BME280;59438;45.014;39.006;2022-08-21T01:01:52;100586.69;;;24.16;71.72
71643;BME280;59438;45.014;39.006;2022-08-21T01:04:19;100575.97;;;24.16;71.83
71643;BME280;59438;45.014;39.006;2022-08-21T01:06:46;100560.00;;;24.14;72.14
71643;BME280;59438;45.014;39.006;2022-08-21T01:09:13;100563.53;;;24.14;71.75
71643;BME280;59438;45.014;39.006;2022-08-21T01:11:40;100570.72;;;24.14;71.60
71643;BME280;59438;45.014;39.006;2022-08-21T01:14:07;100560.00;;;24.14;71.21
71643;BME280;59438;45.014;39.006;2022-08-21T01:16:35;100563.53;;;24.14;71.02
71643;BME280;59438;45.014;39.006;2022-08-21T01:19:01;100568.88;;;24.14;70.49
71643;BME280;59438;45.014;39.006;2022-08-21T01:21:29;100568.19;;;24.12;70.38
71643;BME280;59438;45.014;39.006;2022-08-21T01:23:57;100577.38;;;24.10;70.34
71643;BME280;59438;45.014;39.006;2022-08-21T01:26:25;100564.53;;;24.13;69.52
71643;BME280;59438;45.014;39.006;2022-08-21T01:28:59;100560.00;;;24.14;69.88
71643;BME280;59438;45.014;39.006;2022-08-21T01:31:27;100539.03;;;24.00;69.34
71643;BME280;59438;45.014;39.006;2022-08-21T01:33:56;100532.50;;;24.02;69.31
71643;BME280;59438;45.014;39.006;2022-08-21T01:36:22;100554.50;;;24.16;69.10
71643;BME280;59438;45.014;39.006;2022-08-21T01:38:51;100550.81;;;24.17;68.30
71643;BME280;59438;45.014;39.006;2022-08-21T01:41:17;100546.28;;;24.17;68.53
71643;BME280;59438;45.014;39.006;2022-08-21T01:43:44;100551.63;;;24.17;67.92
71643;BME280;59438;45.014;39.006;2022-08-21T01:46:11;100547.13;;;24.18;67.48
71643;BME280;59438;45.014;39.006;2022-08-21T01:48:38;100549.66;;;24.19;67.28
71643;BME280;59438;45.014;39.006;2022-08-21T01:51:05;100550.34;;;24.21;66.76
71643;BME280;59438;45.014;39.006;2022-08-21T01:53:32;100544.00;;;24.22;66.55
71643;BME280;59438;45.014;39.006;2022-08-21T01:56:00;100543.16;;;24.22;65.69
71643;BME280;59438;45.014;39.006;2022-08-21T01:58:26;100545.16;;;24.20;65.68
71643;BME280;59438;45.014;39.006;2022-08-21T02:00:53;100544.59;;;24.16;66.14
71643;BME280;59438;45.014;39.006;2022-08-21T02:03:19;100543.06;;;24.13;65.46
71643;BME280;59438;45.014;39.006;2022-08-21T02:05:45;100540.53;;;24.12;65.37
71643;BME280;59438;45.014;39.006;2022-08-21T02:08:12;100542.38;;;24.11;64.62
71643;BME280;59438;45.014;39.006;2022-08-21T02:10:38;100541.50;;;24.11;64.78
71643;BME280;59438;45.014;39.006;2022-08-21T02:13:06;100538.81;;;24.11;64.12
71643;BME280;59438;45.014;39.006;2022-08-21T02:15:33;100530.63;;;24.12;64.33
71643;BME280;59438;45.014;39.006;2022-08-21T02:18:01;100538.13;;;24.09;63.43
71643;BME280;59438;45.014;39.006;2022-08-21T02:20:29;100540.53;;;24.12;64.12
71643;BME280;59438;45.014;39.006;2022-08-21T02:22:55;100545.19;;;24.10;64.15
71643;BME280;59438;45.014;39.006;2022-08-21T02:25:24;100553.25;;;24.10;63.74
71643;BME280;59438;45.014;39.006;2022-08-21T02:27:51;100555.09;;;24.09;64.04
71643;BME280;59438;45.014;39.006;2022-08-21T02:30:21;100538.59;;;23.94;63.61
71643;BME280;59438;45.014;39.006;2022-08-21T02:32:48;100580.78;;;24.12;63.62
71643;BME280;59438;45.014;39.006;2022-08-21T02:35:14;100599.41;;;24.13;64.08
71643;BME280;59438;45.014;39.006;2022-08-21T02:37:47;100603.06;;;24.12;63.61
71643;BME280;59438;45.014;39.006;2022-08-21T02:40:15;100614.63;;;24.13;63.86
71643;BME280;59438;45.014;39.006;2022-08-21T02:42:42;100609.59;;;24.10;63.72
71643;BME280;59438;45.014;39.006;2022-08-21T02:45:09;100595.47;;;24.08;63.94
71643;BME280;59438;45.014;39.006;2022-08-21T02:47:36;100592.78;;;24.08;63.15
71643;BME280;59438;45.014;39.006;2022-08-21T02:50:04;100594.78;;;24.06;63.43
71643;BME280;59438;45.014;39.006;2022-08-21T02:52:30;100597.44;;;24.06;63.31
71643;BME280;59438;45.014;39.006;2022-08-21T02:54:56;100600.97;;;24.06;63.51
71643;BME280;59438;45.014;39.006;2022-08-21T02:57:23;100593.75;;;24.07;63.29
71643;BME280;59438;45.014;39.006;2022-08-21T02:59:49;100596.44;;;24.07;63.34
71643;BME280;59438;45.014;39.006;2022-08-21T03:02:16;100597.44;;;24.06;63.10
71643;BME280;59438;45.014;39.006;2022-08-21T03:04:43;100601.13;;;24.05;62.71
71643;BME280;59438;45.014;39.006;2022-08-21T03:07:10;100600.28;;;24.04;62.65
71643;BME280;59438;45.014;39.006;2022-08-21T03:09:36;100594.91;;;24.04;63.09
71643;BME280;59438;45.014;39.006;2022-08-21T03:12:02;100602.13;;;24.04;62.71
71643;BME280;59438;45.014;39.006;2022-08-21T03:14:29;100610.16;;;24.04;63.15
71643;BME280;59438;45.014;39.006;2022-08-21T03:16:55;100607.34;;;24.05;62.38
71643;BME280;59438;45.014;39.006;2022-08-21T03:19:21;100606.47;;;24.05;62.57
71643;BME280;59438;45.014;39.006;2022-08-21T03:21:49;100608.31;;;24.04;62.02
71643;BME280;59438;45.014;39.006;2022-08-21T03:24:16;100604.94;;;24.02;62.32
71643;BME280;59438;45.014;39.006;2022-08-21T03:26:42;100603.28;;;24.01;62.27
71643;BME280;59438;45.014;39.006;2022-08-21T03:29:08;100604.25;;;24.00;61.98
71643;BME280;59438;45.014;39.006;2022-08-21T03:31:35;100608.78;;;24.00;62.18
71643;BME280;59438;45.014;39.006;2022-08-21T03:34:01;100596.34;;;23.99;61.92
71643;BME280;59438;45.014;39.006;2022-08-21T03:36:27;100606.09;;;24.00;61.78
71643;BME280;59438;45.014;39.006;2022-08-21T03:38:55;100613.31;;;23.99;61.99
71643;BME280;59438;45.014;39.006;2022-08-21T03:41:22;100625.56;;;24.02;61.92
71643;BME280;59438;45.014;39.006;2022-08-21T03:43:48;100608.78;;;24.00;62.28
71643;BME280;59438;45.014;39.006;2022-08-21T03:46:14;100602.41;;;24.01;61.89
71643;BME280;59438;45.014;39.006;2022-08-21T03:48:41;100601.69;;;23.99;62.01
71643;BME280;59438;45.014;39.006;2022-08-21T03:51:08;100603.53;;;23.98;62.48
71643;BME280;59438;45.014;39.006;2022-08-21T03:53:34;100603.53;;;23.98;62.13
71643;BME280;59438;45.014;39.006;2022-08-21T03:56:02;100604.38;;;23.99;61.84
71643;BME280;59438;45.014;39.006;2022-08-21T03:58:29;100602.41;;;24.01;62.17
71643;BME280;59438;45.014;39.006;2022-08-21T04:00:58;100588.34;;;23.89;61.88
71643;BME280;59438;45.014;39.006;2022-08-21T04:03:27;100612.00;;;24.03;61.79
71643;BME280;59438;45.014;39.006;2022-08-21T04:05:55;100602.25;;;24.02;61.70
71643;BME280;59438;45.014;39.006;2022-08-21T04:08:21;100600.59;;;24.01;62.19
71643;BME280;59438;45.014;39.006;2022-08-21T04:10:50;100588.47;;;23.87;62.10
71643;BME280;59438;45.014;39.006;2022-08-21T04:13:18;100604.38;;;23.99;61.57
71643;BME280;59438;45.014;39.006;2022-08-21T04:15:45;100611.72;;;23.97;61.94
71643;BME280;59438;45.014;39.006;2022-08-21T04:18:11;100611.59;;;23.98;61.96
71643;BME280;59438;45.014;39.006;2022-08-21T04:20:38;100606.94;;;24.00;61.80
71643;BME280;59438;45.014;39.006;2022-08-21T04:23:05;100613.00;;;24.02;62.13
71643;BME280;59438;45.014;39.006;2022-08-21T04:25:31;100606.47;;;24.05;61.66
71643;BME280;59438;45.014;39.006;2022-08-21T04:27:58;100607.19;;;24.07;61.45
71643;BME280;59438;45.014;39.006;2022-08-21T04:30:26;100602.50;;;24.09;60.95
71643;BME280;59438;45.014;39.006;2022-08-21T04:32:52;100607.59;;;24.12;61.77
71643;BME280;59438;45.014;39.006;2022-08-21T04:35:20;100586.72;;;24.06;61.29
71643;BME280;59438;45.014;39.006;2022-08-21T04:37:47;100607.00;;;24.18;61.72
71643;BME280;59438;45.014;39.006;2022-08-21T04:40:16;100618.13;;;24.23;61.30
71643;BME280;59438;45.014;39.006;2022-08-21T04:42:45;100588.97;;;24.10;61.55
71643;BME280;59438;45.014;39.006;2022-08-21T04:45:17;100616.56;;;24.30;61.14
71643;BME280;59438;45.014;39.006;2022-08-21T04:47:45;100626.28;;;24.31;61.22
71643;BME280;59438;45.014;39.006;2022-08-21T04:50:12;100628.13;;;24.31;60.94
71643;BME280;59438;45.014;39.006;2022-08-21T04:52:38;100621.09;;;24.30;61.30
71643;BME280;59438;45.014;39.006;2022-08-21T04:55:05;100625.59;;;24.29;61.24
71643;BME280;59438;45.014;39.006;2022-08-21T04:57:32;100625.59;;;24.29;61.52
71643;BME280;59438;45.014;39.006;2022-08-21T04:59:58;100623.91;;;24.28;61.45
71643;BME280;59438;45.014;39.006;2022-08-21T05:02:24;100630.13;;;24.29;61.43
71643;BME280;59438;45.014;39.006;2022-08-21T05:04:53;100623.59;;;24.31;61.36
71643;BME280;59438;45.014;39.006;2022-08-21T05:07:22;100623.59;;;24.31;61.34
71643;BME280;59438;45.014;39.006;2022-08-21T05:09:51;100619.09;;;24.32;61.53
71643;BME280;59438;45.014;39.006;2022-08-21T05:12:18;100621.63;;;24.33;61.52
71643;BME280;59438;45.014;39.006;2022-08-21T05:14:44;100605.22;;;24.37;61.03
71643;BME280;59438;45.014;39.006;2022-08-21T05:17:11;100620.75;;;24.43;60.79
71643;BME280;59438;45.014;39.006;2022-08-21T05:19:37;100623.13;;;24.46;60.87
71643;BME280;59438;45.014;39.006;2022-08-21T05:22:05;100623.13;;;24.46;60.49
71643;BME280;59438;45.014;39.006;2022-08-21T05:24:32;100623.81;;;24.48;60.89
71643;BME280;59438;45.014;39.006;2022-08-21T05:26:58;100620.16;;;24.49;60.87
71643;BME280;59438;45.014;39.006;2022-08-21T05:29:25;100625.41;;;24.50;60.64
71643;BME280;59438;45.014;39.006;2022-08-21T05:31:52;100634.44;;;24.49;60.56
71643;BME280;59438;45.014;39.006;2022-08-21T05:34:21;100619.72;;;24.44;60.97
71643;BME280;59438;45.014;39.006;2022-08-21T05:36:48;100633.00;;;24.55;60.66
71643;BME280;59438;45.014;39.006;2022-08-21T05:39:16;100619.59;;;24.55;60.54
71643;BME280;59438;45.014;39.006;2022-08-21T05:41:43;100618.66;;;24.64;60.88
71643;BME280;59438;45.014;39.006;2022-08-21T05:44:09;100627.13;;;24.69;60.30
71643;BME280;59438;45.014;39.006;2022-08-21T05:46:35;100630.06;;;24.76;60.77
71643;BME280;59438;45.014;39.006;2022-08-21T05:49:02;100642.75;;;24.84;60.71
71643;BME280;59438;45.014;39.006;2022-08-21T05:51:28;100641.81;;;24.93;60.20
71643;BME280;59438;45.014;39.006;2022-08-21T05:53:54;100644.72;;;25.00;60.19
71643;BME280;59438;45.014;39.006;2022-08-21T05:56:22;100637.63;;;25.08;60.05
71643;BME280;59438;45.014;39.006;2022-08-21T05:58:48;100640.22;;;25.18;59.97
71643;BME280;59438;45.014;39.006;2022-08-21T06:01:15;100644.84;;;25.26;59.87
71643;BME280;59438;45.014;39.006;2022-08-21T06:03:41;100642.09;;;25.36;59.78
71643;BME280;59438;45.014;39.006;2022-08-21T06:06:08;100644.03;;;25.43;59.48
71643;BME280;59438;45.014;39.006;2022-08-21T06:08:34;100632.41;;;25.43;59.67
71643;BME280;59438;45.014;39.006;2022-08-21T06:11:01;100634.19;;;25.52;59.26
71643;BME280;59438;45.014;39.006;2022-08-21T06:13:31;100633.16;;;25.53;59.23
71643;BME280;59438;45.014;39.006;2022-08-21T06:16:02;100628.72;;;25.44;59.32
71643;BME280;59438;45.014;39.006;2022-08-21T06:18:28;100643.00;;;25.62;59.28
71643;BME280;59438;45.014;39.006;2022-08-21T06:20:55;100645.22;;;25.67;58.95
71643;BME280;59438;45.014;39.006;2022-08-21T06:23:21;100633.06;;;25.63;59.15
71643;BME280;59438;45.014;39.006;2022-08-21T06:25:47;100650.09;;;25.71;58.70
71643;BME280;59438;45.014;39.006;2022-08-21T06:28:14;100656.03;;;25.75;58.75
71643;BME280;59438;45.014;39.006;2022-08-21T06:30:42;100650.03;;;25.81;58.69
71643;BME280;59438;45.014;39.006;2022-08-21T06:33:08;100644.34;;;25.84;58.64
71643;BME280;59438;45.014;39.006;2022-08-21T06:35:35;100651.94;;;25.89;58.79
71643;BME280;59438;45.014;39.006;2022-08-21T06:38:02;100645.41;;;25.91;58.32
71643;BME280;59438;45.014;39.006;2022-08-21T06:40:29;100639.88;;;25.93;58.44
71643;BME280;59438;45.014;39.006;2022-08-21T06:42:56;100641.31;;;26.05;58.49
71643;BME280;59438;45.014;39.006;2022-08-21T06:45:23;100636.66;;;26.16;58.05
71643;BME280;59438;45.014;39.006;2022-08-21T06:47:50;100635.69;;;26.25;57.71
71643;BME280;59438;45.014;39.006;2022-08-21T06:50:17;100640.13;;;26.34;57.82
71643;BME280;59438;45.014;39.006;2022-08-21T06:52:43;100643.69;;;26.43;57.45
71643;BME280;59438;45.014;39.006;2022-08-21T06:55:12;100632.75;;;26.44;57.37
71643;BME280;59438;45.014;39.006;2022-08-21T06:57:38;100634.44;;;26.45;57.47
71643;BME280;59438;45.014;39.006;2022-08-21T07:00:06;100646.22;;;26.44;57.32
71643;BME280;59438;45.014;39.006;2022-08-21T07:02:32;100629.19;;;26.44;57.44
71643;BME280;59438;45.014;39.006;2022-08-21T07:05:00;100633.44;;;26.46;57.42
71643;BME280;59438;45.014;39.006;2022-08-21T07:07:27;100630.56;;;26.48;57.48
71643;BME280;59438;45.014;39.006;2022-08-21T07:09:53;100625.84;;;26.50;57.50
71643;BME280;59438;45.014;39.006;2022-08-21T07:12:19;100628.38;;;26.51;57.53
71643;BME280;59438;45.014;39.006;2022-08-21T07:14:46;100631.91;;;26.52;57.39
71643;BME280;59438;45.014;39.006;2022-08-21T07:17:12;100624.84;;;26.51;57.35
71643;BME280;59438;45.014;39.006;2022-08-21T07:19:38;100627.41;;;26.52;57.68
71643;BME280;59438;45.014;39.006;2022-08-21T07:22:06;100617.47;;;26.53;57.31
71643;BME280;59438;45.014;39.006;2022-08-21T07:24:33;100618.00;;;26.57;57.42
71643;BME280;59438;45.014;39.006;2022-08-21T07:26:59;100621.88;;;26.62;57.54
71643;BME280;59438;45.014;39.006;2022-08-21T07:29:26;100618.72;;;26.67;57.34
71643;BME280;59438;45.014;39.006;2022-08-21T07:31:52;100622.59;;;26.72;57.19
71643;BME280;59438;45.014;39.006;2022-08-21T07:34:18;100623.63;;;26.80;57.13
71643;BME280;59438;45.014;39.006;2022-08-21T07:36:45;100625.84;;;26.84;57.22
71643;BME280;59438;45.014;39.006;2022-08-21T07:39:12;100607.50;;;26.88;56.83
71643;BME280;59438;45.014;39.006;2022-08-21T07:41:39;100607.16;;;26.99;56.92
71643;BME280;59438;45.014;39.006;2022-08-21T07:44:05;100615.59;;;27.04;56.69
71643;BME280;59438;45.014;39.006;2022-08-21T07:46:31;100615.25;;;27.07;56.69
71643;BME280;59438;45.014;39.006;2022-08-21T07:48:58;100607.84;;;27.09;56.82
71643;BME280;59438;45.014;39.006;2022-08-21T07:51:27;100608.19;;;27.14;56.79
71643;BME280;59438;45.014;39.006;2022-08-21T07:53:55;100607.69;;;27.19;56.38
71643;BME280;59438;45.014;39.006;2022-08-21T07:56:23;100609.06;;;27.23;56.31
71643;BME280;59438;45.014;39.006;2022-08-21T07:58:49;100611.25;;;27.28;56.51
71643;BME280;59438;45.014;39.006;2022-08-21T08:01:16;100611.63;;;27.33;56.23
71643;BME280;59438;45.014;39.006;2022-08-21T08:03:43;100611.09;;;27.38;56.27
71643;BME280;59438;45.014;39.006;2022-08-21T08:06:09;100594.75;;;27.31;56.38
71643;BME280;59438;45.014;39.006;2022-08-21T08:08:35;100606.38;;;27.48;56.51
71643;BME280;59438;45.014;39.006;2022-08-21T08:11:02;100602.31;;;27.52;56.28
71643;BME280;59438;45.014;39.006;2022-08-21T08:13:29;100598.59;;;27.61;55.94
71643;BME280;59438;45.014;39.006;2022-08-21T08:15:56;100595.72;;;27.71;56.29
71643;BME280;59438;45.014;39.006;2022-08-21T08:18:23;100600.59;;;27.76;55.70
71643;BME280;59438;45.014;39.006;2022-08-21T08:20:49;100598.06;;;27.82;55.74
71643;BME280;59438;45.014;39.006;2022-08-21T08:23:15;100593.03;;;27.87;55.92
71643;BME280;59438;45.014;39.006;2022-08-21T08:25:42;100580.53;;;27.95;55.57
71643;BME280;59438;45.014;39.006;2022-08-21T08:28:08;100581.50;;;28.02;55.38
71643;BME280;59438;45.014;39.006;2022-08-21T08:30:36;100588.91;;;28.08;55.52
71643;BME280;59438;45.014;39.006;2022-08-21T08:33:02;100581.16;;;28.13;55.38
71643;BME280;59438;45.014;39.006;2022-08-21T08:35:29;100583.16;;;28.19;55.09
71643;BME280;59438;45.014;39.006;2022-08-21T08:37:55;100579.56;;;28.27;55.08
71643;BME280;59438;45.014;39.006;2022-08-21T08:40:28;100581.22;;;28.36;54.94
71643;BME280;59438;45.014;39.006;2022-08-21T08:42:56;100574.94;;;28.44;55.22
71643;BME280;59438;45.014;39.006;2022-08-21T08:45:23;100577.94;;;28.49;54.69
71643;BME280;59438;45.014;39.006;2022-08-21T08:47:56;100554.00;;;28.46;54.78
71643;BME280;59438;45.014;39.006;2022-08-21T08:50:40;100561.66;;;28.65;54.66
71643;BME280;59438;45.014;39.006;2022-08-21T08:53:11;100563.66;;;28.71;54.03
71643;BME280;59438;45.014;39.006;2022-08-21T08:55:41;100566.47;;;28.78;54.16
71643;BME280;59438;45.014;39.006;2022-08-21T08:58:09;100541.03;;;28.72;54.27
71643;BME280;59438;45.014;39.006;2022-08-21T09:00:38;100553.88;;;28.93;54.54
71643;BME280;59438;45.014;39.006;2022-08-21T09:03:06;100560.22;;;29.01;53.75
71643;BME280;59438;45.014;39.006;2022-08-21T09:05:41;100559.69;;;29.05;53.66
71643;BME280;59438;45.014;39.006;2022-08-21T09:08:23;100550.38;;;29.08;53.80
71643;BME280;59438;45.014;39.006;2022-08-21T09:11:00;100556.28;;;29.11;53.44
71643;BME280;59438;45.014;39.006;2022-08-21T09:13:37;100554.06;;;29.15;53.25
71643;BME280;59438;45.014;39.006;2022-08-21T09:16:15;100556.03;;;29.21;53.33
71643;BME280;59438;45.014;39.006;2022-08-21T09:18:51;100557.66;;;29.30;53.72
71643;BME280;59438;45.014;39.006;2022-08-21T09:21:28;100553.00;;;29.39;53.38
71643;BME280;59438;45.014;39.006;2022-08-21T09:24:01;100558.91;;;29.43;52.91
71643;BME280;59438;45.014;39.006;2022-08-21T09:26:31;100556.28;;;29.49;52.98
71643;BME280;59438;45.014;39.006;2022-08-21T09:29:02;100553.69;;;29.56;52.73
71643;BME280;59438;45.014;39.006;2022-08-21T09:31:30;100546.88;;;29.60;52.59
71643;BME280;59438;45.014;39.006;2022-08-21T09:34:00;100549.00;;;29.65;51.77
71643;BME280;59438;45.014;39.006;2022-08-21T09:36:34;100542.59;;;29.66;52.44
71643;BME280;59438;45.014;39.006;2022-08-21T09:39:02;100532.25;;;29.69;52.20
71643;BME280;59438;45.014;39.006;2022-08-21T09:41:33;100513.75;;;29.58;52.05
71643;BME280;59438;45.014;39.006;2022-08-21T09:44:00;100531.72;;;29.74;52.24
71643;BME280;59438;45.014;39.006;2022-08-21T09:46:27;100523.41;;;29.76;52.56
71643;BME280;59438;45.014;39.006;2022-08-21T09:48:55;100511.78;;;29.67;51.93
71643;BME280;59438;45.014;39.006;2022-08-21T09:51:24;100512.44;;;29.69;51.42
71643;BME280;59438;45.014;39.006;2022-08-21T09:53:54;100522.09;;;29.86;51.82
71643;BME280;59438;45.014;39.006;2022-08-21T09:56:27;100520.28;;;29.93;51.58
71643;BME280;59438;45.014;39.006;2022-08-21T09:58:54;100531.50;;;30.05;51.51
71643;BME280;59438;45.014;39.006;2022-08-21T10:01:22;100518.03;;;30.12;51.25
71643;BME280;59438;45.014;39.006;2022-08-21T10:04:02;100520.75;;;30.12;50.35
71643;BME280;59438;45.014;39.006;2022-08-21T10:06:30;100534.25;;;30.27;51.77
71643;BME280;59438;45.014;39.006;2022-08-21T10:09:04;100535.13;;;30.27;50.79
71643;BME280;59438;45.014;39.006;2022-08-21T10:11:31;100534.75;;;30.30;51.09
71643;BME280;59438;45.014;39.006;2022-08-21T10:14:06;100532.09;;;30.37;50.21
71643;BME280;59438;45.014;39.006;2022-08-21T10:16:45;100538.28;;;30.46;50.37
71643;BME280;59438;45.014;39.006;2022-08-21T10:19:21;100538.53;;;30.51;49.76
71643;BME280;59438;45.014;39.006;2022-08-21T10:21:59;100529.81;;;30.56;49.97
71643;BME280;59438;45.014;39.006;2022-08-21T10:24:29;100539.81;;;30.55;49.15
71643;BME280;59438;45.014;39.006;2022-08-21T10:27:06;100537.19;;;30.62;49.53
71643;BME280;59438;45.014;39.006;2022-08-21T10:29:47;100539.50;;;30.65;49.35
71643;BME280;59438;45.014;39.006;2022-08-21T10:32:24;100540.34;;;30.65;48.85
71643;BME280;59438;45.014;39.006;2022-08-21T10:35:00;100535.13;;;30.64;49.17
71643;BME280;59438;45.014;39.006;2022-08-21T10:37:50;100535.84;;;30.72;49.15
71643;BME280;59438;45.014;39.006;2022-08-21T10:40:23;100542.56;;;30.77;49.66
71643;BME280;59438;45.014;39.006;2022-08-21T10:43:02;100532.44;;;30.85;49.63
71643;BME280;59438;45.014;39.006;2022-08-21T10:45:42;100514.47;;;30.84;49.93
71643;BME280;59438;45.014;39.006;2022-08-21T10:48:17;100520.25;;;30.96;49.37
71643;BME280;59438;45.014;39.006;2022-08-21T10:50:51;100534.81;;;31.17;49.17
71643;BME280;59438;45.014;39.006;2022-08-21T10:53:40;100536.13;;;31.27;48.99
71643;BME280;59438;45.014;39.006;2022-08-21T10:56:16;100510.03;;;31.20;48.50
71643;BME280;59438;45.014;39.006;2022-08-21T10:58:49;100523.28;;;31.36;48.68
71643;BME280;59438;45.014;39.006;2022-08-21T11:01:25;100523.16;;;31.44;48.71
71643;BME280;59438;45.014;39.006;2022-08-21T11:03:58;100499.94;;;31.42;48.12
71643;BME280;59438;45.014;39.006;2022-08-21T11:06:32;100518.84;;;31.57;47.83
71643;BME280;59438;45.014;39.006;2022-08-21T11:09:13;100505.53;;;31.62;47.91
71643;BME280;59438;45.014;39.006;2022-08-21T11:11:44;100496.75;;;31.60;47.57
71643;BME280;59438;45.014;39.006;2022-08-21T11:14:21;100504.28;;;31.64;47.31
71643;BME280;59438;45.014;39.006;2022-08-21T11:16:52;100480.19;;;31.55;47.55
71643;BME280;59438;45.014;39.006;2022-08-21T11:19:27;100491.16;;;31.68;47.27
71643;BME280;59438;45.014;39.006;2022-08-21T11:22:01;100492.00;;;31.75;47.56
71643;BME280;59438;45.014;39.006;2022-08-21T11:24:39;100489.53;;;31.80;47.22
71643;BME280;59438;45.014;39.006;2022-08-21T11:27:19;100491.66;;;31.85;47.04
71643;BME280;59438;45.014;39.006;2022-08-21T11:29:49;100495.00;;;31.87;47.13
71643;BME280;59438;45.014;39.006;2022-08-21T11:35:32;100493.22;;;32.01;46.64
71643;BME280;59438;45.014;39.006;2022-08-21T11:38:16;100494.47;;;32.05;46.19
71643;BME280;59438;45.014;39.006;2022-08-21T11:40:57;100494.94;;;32.08;45.96
71643;BME280;59438;45.014;39.006;2022-08-21T11:43:37;100474.97;;;31.95;45.92
71643;BME280;59438;45.014;39.006;2022-08-21T11:46:14;100486.88;;;31.93;46.14
71643;BME280;59438;45.014;39.006;2022-08-21T11:48:48;100486.22;;;31.91;45.90
71643;BME280;59438;45.014;39.006;2022-08-21T11:51:19;100485.00;;;31.94;46.22
71643;BME280;59438;45.014;39.006;2022-08-21T11:53:50;100488.81;;;32.00;45.93
71643;BME280;59438;45.014;39.006;2022-08-21T11:56:20;100480.47;;;32.08;46.84
71643;BME280;59438;45.014;39.006;2022-08-21T11:58:51;100480.28;;;32.09;45.71
71643;BME280;59438;45.014;39.006;2022-08-21T12:01:22;100486.16;;;32.13;45.61
71643;BME280;59438;45.014;39.006;2022-08-21T12:03:57;100485.09;;;32.14;45.25
71643;BME280;59438;45.014;39.006;2022-08-21T12:06:31;100476.94;;;32.07;45.26
71643;BME280;59438;45.014;39.006;2022-08-21T12:09:01;100473.78;;;32.04;45.53
71643;BME280;59438;45.014;39.006;2022-08-21T12:11:30;100481.34;;;32.08;45.32
71643;BME280;59438;45.014;39.006;2022-08-21T12:13:58;100482.38;;;32.14;45.35
71643;BME280;59438;45.014;39.006;2022-08-21T12:16:30;100470.88;;;32.12;45.05
71643;BME280;59438;45.014;39.006;2022-08-21T12:19:04;100481.34;;;32.15;45.02
71643;BME280;59438;45.014;39.006;2022-08-21T12:21:31;100477.38;;;32.11;45.74
71643;BME280;59438;45.014;39.006;2022-08-21T12:24:04;100478.19;;;32.05;45.55
71643;BME280;59438;45.014;39.006;2022-08-21T12:26:50;100472.25;;;31.95;45.80
71643;BME280;59438;45.014;39.006;2022-08-21T12:29:22;100473.47;;;31.85;46.18
71643;BME280;59438;45.014;39.006;2022-08-21T12:31:56;100471.78;;;31.78;46.31
71643;BME280;59438;45.014;39.006;2022-08-21T12:34:26;100458.56;;;31.68;46.68
71643;BME280;59438;45.014;39.006;2022-08-21T12:37:03;100468.19;;;31.70;46.90
71643;BME280;59438;45.014;39.006;2022-08-21T12:39:35;100447.44;;;31.56;47.30
71643;BME280;59438;45.014;39.006;2022-08-21T12:42:11;100467.53;;;31.68;46.51
71643;BME280;59438;45.014;39.006;2022-08-21T12:44:44;100465.47;;;31.70;46.63
71643;BME280;59438;45.014;39.006;2022-08-21T12:47:22;100464.03;;;31.75;46.28
71643;BME280;59438;45.014;39.006;2022-08-21T12:49:54;100464.84;;;31.75;46.82
71643;BME280;59438;45.014;39.006;2022-08-21T12:52:27;100455.69;;;31.76;46.34